sensor_id;sensor_type;location;lat;lon;timestamp;P1;durP1;ratioP1;P2;durP2;ratioP2
545;SDS011;259;53.304;9.816;2023-03-01T00:01:28;1.10;;;1.00;;
545;SDS011;259;53.304;9.816;2023-03-01T00:03:56;0.97;;;0.67;;
545;SDS011;259;53.304;9.816;2023-03-01T00:06:23;0.60;;;0.60;;
545;SDS011;259;53.304;9.816;2023-03-01T00:08:49;0.70;;;0.60;;
545;SDS011;259;53.304;9.816;2023-03-01T00:13:50;0.70;;;0.70;;
545;SDS011;259;53.304;9.816;2023-03-01T00:16:20;0.77;;;0.77;;
545;SDS011;259;53.304;9.816;2023-03-01T00:18:51;0.90;;;0.60;;
545;SDS011;259;53.304;9.816;2023-03-01T00:21:19;1.10;;;0.83;;
545;SDS011;259;53.304;9.816;2023-03-01T00:23:47;0.60;;;0.60;;
545;SDS011;259;53.304;9.816;2023-03-01T00:26:14;0.70;;;0.60;;
545;SDS011;259;53.304;9.816;2023-03-01T00:28:41;0.60;;;0.60;;
545;SDS011;259;53.304;9.816;2023-03-01T00:31:26;0.87;;;0.87;;
545;SDS011;259;53.304;9.816;2023-03-01T00:33:55;0.60;;;0.50;;
545;SDS011;259;53.304;9.816;2023-03-01T00:36:24;1.00;;;0.70;;
545;SDS011;259;53.304;9.816;2023-03-01T00:38:53;0.73;;;0.73;;
545;SDS011;259;53.304;9.816;2023-03-01T00:41:20;0.70;;;0.60;;
545;SDS011;259;53.304;9.816;2023-03-01T00:43:51;1.00;;;0.80;;
545;SDS011;259;53.304;9.816;2023-03-01T00:46:19;1.00;;;0.60;;
545;SDS011;259;53.304;9.816;2023-03-01T00:48:48;0.80;;;0.70;;
545;SDS011;259;53.304;9.816;2023-03-01T00:51:14;0.80;;;0.80;;
545;SDS011;259;53.304;9.816;2023-03-01T00:53:44;0.87;;;0.80;;
545;SDS011;259;53.304;9.816;2023-03-01T00:56:11;0.70;;;0.70;;
545;SDS011;259;53.304;9.816;2023-03-01T00:58:39;0.70;;;0.60;;
545;SDS011;259;53.304;9.816;2023-03-01T01:01:11;0.60;;;0.60;;
545;SDS011;259;53.304;9.816;2023-03-01T01:03:45;0.80;;;0.70;;
545;SDS011;259;53.304;9.816;2023-03-01T01:06:21;0.70;;;0.60;;
545;SDS011;259;53.304;9.816;2023-03-01T01:08:50;0.80;;;0.70;;
545;SDS011;259;53.304;9.816;2023-03-01T01:11:16;0.80;;;0.80;;
545;SDS011;259;53.304;9.816;2023-03-01T01:13:43;0.60;;;0.50;;
545;SDS011;259;53.304;9.816;2023-03-01T01:16:11;1.07;;;0.97;;
545;SDS011;259;53.304;9.816;2023-03-01T01:18:38;1.33;;;0.80;;
545;SDS011;259;53.304;9.816;2023-03-01T01:21:08;1.33;;;0.73;;
545;SDS011;259;53.304;9.816;2023-03-01T01:23:36;0.80;;;0.80;;
545;SDS011;259;53.304;9.816;2023-03-01T01:26:07;0.87;;;0.87;;
545;SDS011;259;53.304;9.816;2023-03-01T01:28:40;1.10;;;0.83;;
545;SDS011;259;53.304;9.816;2023-03-01T01:31:06;0.63;;;0.63;;
545;SDS011;259;53.304;9.816;2023-03-01T01:33:32;0.90;;;0.70;;
545;SDS011;259;53.304;9.816;2023-03-01T01:35:58;0.60;;;0.60;;
545;SDS011;259;53.304;9.816;2023-03-01T01:38:24;0.63;;;0.63;;
545;SDS011;259;53.304;9.816;2023-03-01T01:40:50;0.70;;;0.70;;
545;SDS011;259;53.304;9.816;2023-03-01T01:44:09;1.13;;;0.80;;
545;SDS011;259;53.304;9.816;2023-03-01T01:48:55;0.70;;;0.70;;
545;SDS011;259;53.304;9.816;2023-03-01T01:51:28;0.97;;;0.97;;
545;SDS011;259;53.304;9.816;2023-03-01T01:54:10;0.70;;;0.60;;
545;SDS011;259;53.304;9.816;2023-03-01T01:56:43;0.70;;;0.60;;
545;SDS011;259;53.304;9.816;2023-03-01T01:59:16;0.83;;;0.60;;
545;SDS011;259;53.304;9.816;2023-03-01T02:01:42;0.60;;;0.40;;
545;SDS011;259;53.304;9.816;2023-03-01T02:04:08;0.77;;;0.77;;
545;SDS011;259;53.304;9.816;2023-03-01T02:06:36;0.73;;;0.60;;
545;SDS011;259;53.304;9.816;2023-03-01T02:09:11;0.83;;;0.60;;
545;SDS011;259;53.304;9.816;2023-03-01T02:11:39;0.70;;;0.70;;
545;SDS011;259;53.304;9.816;2023-03-01T02:14:05;0.60;;;0.50;;
545;SDS011;259;53.304;9.816;2023-03-01T02:16:31;0.70;;;0.70;;
545;SDS011;259;53.304;9.816;2023-03-01T02:18:57;0.73;;;0.60;;
545;SDS011;259;53.304;9.816;2023-03-01T02:24:03;0.70;;;0.70;;
545;SDS011;259;53.304;9.816;2023-03-01T02:26:46;0.80;;;0.70;;
545;SDS011;259;53.304;9.816;2023-03-01T02:29:17;0.80;;;0.73;;
545;SDS011;259;53.304;9.816;2023-03-01T02:31:43;0.73;;;0.60;;
545;SDS011;259;53.304;9.816;2023-03-01T02:34:17;0.80;;;0.70;;
545;SDS011;259;53.304;9.816;2023-03-01T02:37:11;1.43;;;0.70;;
545;SDS011;259;53.304;9.816;2023-03-01T02:39:40;0.80;;;0.60;;
545;SDS011;259;53.304;9.816;2023-03-01T02:42:15;0.80;;;0.80;;
545;SDS011;259;53.304;9.816;2023-03-01T02:44:51;0.70;;;0.60;;
545;SDS011;259;53.304;9.816;2023-03-01T02:47:16;0.70;;;0.60;;
545;SDS011;259;53.304;9.816;2023-03-01T02:49:42;1.17;;;0.70;;
545;SDS011;259;53.304;9.816;2023-03-01T02:55:34;0.70;;;0.70;;
545;SDS011;259;53.304;9.816;2023-03-01T02:57:52;0.63;;;0.60;;
545;SDS011;259;53.304;9.816;2023-03-01T03:00:22;1.13;;;0.83;;
545;SDS011;259;53.304;9.816;2023-03-01T03:02:55;0.90;;;0.90;;
545;SDS011;259;53.304;9.816;2023-03-01T03:05:30;1.20;;;0.60;;
545;SDS011;259;53.304;9.816;2023-03-01T03:07:57;0.70;;;0.60;;
545;SDS011;259;53.304;9.816;2023-03-01T03:10:26;0.93;;;0.70;;
545;SDS011;259;53.304;9.816;2023-03-01T03:12:59;1.00;;;0.70;;
545;SDS011;259;53.304;9.816;2023-03-01T03:15:31;0.70;;;0.60;;
545;SDS011;259;53.304;9.816;2023-03-01T03:18:01;0.87;;;0.87;;
545;SDS011;259;53.304;9.816;2023-03-01T03:20:30;0.97;;;0.87;;
545;SDS011;259;53.304;9.816;2023-03-01T03:22:57;0.90;;;0.80;;
545;SDS011;259;53.304;9.816;2023-03-01T03:25:24;0.70;;;0.70;;
545;SDS011;259;53.304;9.816;2023-03-01T03:27:51;0.93;;;0.93;;
545;SDS011;259;53.304;9.816;2023-03-01T03:30:24;0.70;;;0.60;;
545;SDS011;259;53.304;9.816;2023-03-01T03:32:56;0.70;;;0.70;;
545;SDS011;259;53.304;9.816;2023-03-01T03:35:27;0.80;;;0.70;;
545;SDS011;259;53.304;9.816;2023-03-01T03:38:00;0.60;;;0.50;;
545;SDS011;259;53.304;9.816;2023-03-01T03:40:40;0.60;;;0.60;;
545;SDS011;259;53.304;9.816;2023-03-01T03:43:14;0.80;;;0.70;;
545;SDS011;259;53.304;9.816;2023-03-01T03:45:46;1.73;;;1.23;;
545;SDS011;259;53.304;9.816;2023-03-01T03:48:14;0.83;;;0.73;;
545;SDS011;259;53.304;9.816;2023-03-01T03:50:41;0.90;;;0.70;;
545;SDS011;259;53.304;9.816;2023-03-01T03:53:12;0.60;;;0.50;;
545;SDS011;259;53.304;9.816;2023-03-01T03:55:38;0.97;;;0.70;;
545;SDS011;259;53.304;9.816;2023-03-01T03:58:04;0.83;;;0.80;;
545;SDS011;259;53.304;9.816;2023-03-01T04:00:36;0.73;;;0.70;;
545;SDS011;259;53.304;9.816;2023-03-01T04:03:04;0.63;;;0.50;;
545;SDS011;259;53.304;9.816;2023-03-01T04:05:30;0.60;;;0.60;;
545;SDS011;259;53.304;9.816;2023-03-01T04:07:56;0.80;;;0.70;;
545;SDS011;259;53.304;9.816;2023-03-01T04:10:56;0.80;;;0.70;;
545;SDS011;259;53.304;9.816;2023-03-01T04:13:23;0.90;;;0.90;;
545;SDS011;259;53.304;9.816;2023-03-01T04:15:50;1.20;;;0.70;;
545;SDS011;259;53.304;9.816;2023-03-01T04:18:18;1.00;;;0.60;;
545;SDS011;259;53.304;9.816;2023-03-01T04:20:46;1.00;;;0.90;;
545;SDS011;259;53.304;9.816;2023-03-01T04:23:16;0.70;;;0.70;;
545;SDS011;259;53.304;9.816;2023-03-01T04:28:29;1.00;;;0.67;;
545;SDS011;259;53.304;9.816;2023-03-01T04:31:06;0.83;;;0.80;;
545;SDS011;259;53.304;9.816;2023-03-01T04:33:41;0.70;;;0.67;;
545;SDS011;259;53.304;9.816;2023-03-01T04:36:10;0.70;;;0.60;;
545;SDS011;259;53.304;9.816;2023-03-01T04:38:37;0.73;;;0.70;;
545;SDS011;259;53.304;9.816;2023-03-01T04:41:05;0.70;;;0.70;;
545;SDS011;259;53.304;9.816;2023-03-01T04:43:33;0.90;;;0.67;;
545;SDS011;259;53.304;9.816;2023-03-01T04:46:02;0.80;;;0.70;;
545;SDS011;259;53.304;9.816;2023-03-01T04:48:32;0.83;;;0.70;;
545;SDS011;259;53.304;9.816;2023-03-01T04:50:58;0.90;;;0.90;;
545;SDS011;259;53.304;9.816;2023-03-01T04:53:25;1.17;;;0.87;;
545;SDS011;259;53.304;9.816;2023-03-01T04:55:56;0.97;;;0.90;;
545;SDS011;259;53.304;9.816;2023-03-01T04:58:22;0.60;;;0.57;;
545;SDS011;259;53.304;9.816;2023-03-01T05:00:49;0.70;;;0.70;;
545;SDS011;259;53.304;9.816;2023-03-01T05:03:15;1.47;;;1.37;;
545;SDS011;259;53.304;9.816;2023-03-01T05:05:43;0.60;;;0.57;;
545;SDS011;259;53.304;9.816;2023-03-01T05:08:11;1.23;;;0.70;;
545;SDS011;259;53.304;9.816;2023-03-01T05:10:48;0.70;;;0.60;;
545;SDS011;259;53.304;9.816;2023-03-01T05:13:17;0.90;;;0.70;;
545;SDS011;259;53.304;9.816;2023-03-01T05:15:57;0.90;;;0.63;;
545;SDS011;259;53.304;9.816;2023-03-01T05:18:25;0.70;;;0.70;;
545;SDS011;259;53.304;9.816;2023-03-01T05:20:53;0.70;;;0.60;;
545;SDS011;259;53.304;9.816;2023-03-01T05:23:21;0.90;;;0.73;;
545;SDS011;259;53.304;9.816;2023-03-01T05:25:48;0.70;;;0.60;;
545;SDS011;259;53.304;9.816;2023-03-01T05:28:17;0.73;;;0.57;;
545;SDS011;259;53.304;9.816;2023-03-01T05:30:45;1.07;;;1.00;;
545;SDS011;259;53.304;9.816;2023-03-01T05:33:11;0.70;;;0.60;;
545;SDS011;259;53.304;9.816;2023-03-01T05:35:43;0.67;;;0.67;;
545;SDS011;259;53.304;9.816;2023-03-01T05:38:10;0.63;;;0.50;;
545;SDS011;259;53.304;9.816;2023-03-01T05:40:41;1.20;;;0.77;;
545;SDS011;259;53.304;9.816;2023-03-01T05:43:08;0.70;;;0.60;;
545;SDS011;259;53.304;9.816;2023-03-01T05:45:35;0.97;;;0.87;;
545;SDS011;259;53.304;9.816;2023-03-01T05:48:03;0.90;;;0.90;;
545;SDS011;259;53.304;9.816;2023-03-01T05:50:32;1.07;;;0.70;;
545;SDS011;259;53.304;9.816;2023-03-01T05:53:02;0.83;;;0.70;;
545;SDS011;259;53.304;9.816;2023-03-01T05:55:31;0.67;;;0.67;;
545;SDS011;259;53.304;9.816;2023-03-01T05:57:58;0.70;;;0.50;;
545;SDS011;259;53.304;9.816;2023-03-01T06:00:29;0.87;;;0.80;;
545;SDS011;259;53.304;9.816;2023-03-01T06:02:55;0.77;;;0.70;;
545;SDS011;259;53.304;9.816;2023-03-01T06:05:23;0.77;;;0.67;;
545;SDS011;259;53.304;9.816;2023-03-01T06:07:49;0.80;;;0.50;;
545;SDS011;259;53.304;9.816;2023-03-01T06:10:15;0.70;;;0.60;;
545;SDS011;259;53.304;9.816;2023-03-01T06:12:43;0.80;;;0.67;;
545;SDS011;259;53.304;9.816;2023-03-01T06:15:10;1.00;;;0.83;;
545;SDS011;259;53.304;9.816;2023-03-01T06:17:39;1.27;;;0.97;;
545;SDS011;259;53.304;9.816;2023-03-01T06:20:09;0.70;;;0.60;;
545;SDS011;259;53.304;9.816;2023-03-01T06:22:44;0.67;;;0.67;;
545;SDS011;259;53.304;9.816;2023-03-01T06:25:12;0.77;;;0.77;;
545;SDS011;259;53.304;9.816;2023-03-01T06:27:40;0.80;;;0.73;;
545;SDS011;259;53.304;9.816;2023-03-01T06:30:07;1.03;;;0.97;;
545;SDS011;259;53.304;9.816;2023-03-01T06:32:35;0.90;;;0.80;;
545;SDS011;259;53.304;9.816;2023-03-01T06:35:02;0.73;;;0.73;;
545;SDS011;259;53.304;9.816;2023-03-01T06:37:29;0.80;;;0.60;;
545;SDS011;259;53.304;9.816;2023-03-01T06:39:55;0.90;;;0.60;;
545;SDS011;259;53.304;9.816;2023-03-01T06:42:21;0.67;;;0.67;;
545;SDS011;259;53.304;9.816;2023-03-01T06:44:46;0.60;;;0.60;;
545;SDS011;259;53.304;9.816;2023-03-01T06:47:12;1.00;;;0.90;;
545;SDS011;259;53.304;9.816;2023-03-01T06:49:38;2.20;;;0.90;;
545;SDS011;259;53.304;9.816;2023-03-01T06:52:03;21.00;;;3.80;;
545;SDS011;259;53.304;9.816;2023-03-01T06:54:29;17.93;;;5.13;;
545;SDS011;259;53.304;9.816;2023-03-01T06:56:55;13.60;;;4.23;;
545;SDS011;259;53.304;9.816;2023-03-01T06:59:20;23.67;;;5.40;;
545;SDS011;259;53.304;9.816;2023-03-01T07:01:46;13.33;;;4.13;;
545;SDS011;259;53.304;9.816;2023-03-01T07:04:12;12.60;;;4.53;;
545;SDS011;259;53.304;9.816;2023-03-01T07:06:38;11.40;;;4.10;;
545;SDS011;259;53.304;9.816;2023-03-01T07:09:04;16.40;;;4.87;;
545;SDS011;259;53.304;9.816;2023-03-01T07:11:30;16.20;;;4.90;;
545;SDS011;259;53.304;9.816;2023-03-01T07:13:55;17.70;;;4.97;;
545;SDS011;259;53.304;9.816;2023-03-01T07:16:21;19.03;;;3.80;;
545;SDS011;259;53.304;9.816;2023-03-01T07:18:47;15.63;;;3.97;;
545;SDS011;259;53.304;9.816;2023-03-01T07:21:13;14.60;;;3.97;;
545;SDS011;259;53.304;9.816;2023-03-01T07:23:39;13.23;;;3.57;;
545;SDS011;259;53.304;9.816;2023-03-01T07:26:05;13.80;;;4.43;;
545;SDS011;259;53.304;9.816;2023-03-01T07:28:32;7.03;;;2.80;;
545;SDS011;259;53.304;9.816;2023-03-01T07:31:03;8.90;;;2.77;;
545;SDS011;259;53.304;9.816;2023-03-01T07:33:29;10.87;;;2.63;;
545;SDS011;259;53.304;9.816;2023-03-01T07:35:59;12.93;;;3.43;;
545;SDS011;259;53.304;9.816;2023-03-01T07:38:26;7.53;;;2.13;;
545;SDS011;259;53.304;9.816;2023-03-01T07:40:53;15.30;;;2.77;;
545;SDS011;259;53.304;9.816;2023-03-01T07:43:19;5.50;;;2.23;;
545;SDS011;259;53.304;9.816;2023-03-01T07:45:45;4.47;;;2.23;;
545;SDS011;259;53.304;9.816;2023-03-01T07:48:11;4.37;;;2.20;;
545;SDS011;259;53.304;9.816;2023-03-01T07:50:37;7.30;;;2.37;;
545;SDS011;259;53.304;9.816;2023-03-01T07:53:03;4.00;;;2.20;;
545;SDS011;259;53.304;9.816;2023-03-01T07:55:29;5.67;;;2.50;;
545;SDS011;259;53.304;9.816;2023-03-01T07:57:55;2.20;;;1.60;;
545;SDS011;259;53.304;9.816;2023-03-01T08:00:21;6.37;;;2.23;;
545;SDS011;259;53.304;9.816;2023-03-01T08:02:46;4.90;;;2.00;;
545;SDS011;259;53.304;9.816;2023-03-01T08:05:12;2.97;;;1.83;;
545;SDS011;259;53.304;9.816;2023-03-01T08:07:38;3.07;;;1.70;;
545;SDS011;259;53.304;9.816;2023-03-01T08:10:04;2.80;;;1.87;;
545;SDS011;259;53.304;9.816;2023-03-01T08:12:30;3.60;;;1.47;;
545;SDS011;259;53.304;9.816;2023-03-01T08:14:56;3.13;;;2.13;;
545;SDS011;259;53.304;9.816;2023-03-01T08:17:22;9.63;;;2.10;;
545;SDS011;259;53.304;9.816;2023-03-01T08:19:47;11.40;;;3.00;;
545;SDS011;259;53.304;9.816;2023-03-01T08:22:13;5.37;;;2.13;;
545;SDS011;259;53.304;9.816;2023-03-01T08:24:39;7.20;;;2.27;;
545;SDS011;259;53.304;9.816;2023-03-01T08:27:04;5.33;;;2.43;;
545;SDS011;259;53.304;9.816;2023-03-01T08:29:31;19.80;;;2.93;;
545;SDS011;259;53.304;9.816;2023-03-01T08:31:57;12.40;;;3.20;;
545;SDS011;259;53.304;9.816;2023-03-01T08:34:23;16.07;;;4.30;;
545;SDS011;259;53.304;9.816;2023-03-01T08:36:49;23.37;;;3.83;;
545;SDS011;259;53.304;9.816;2023-03-01T08:39:17;13.57;;;2.40;;
545;SDS011;259;53.304;9.816;2023-03-01T08:41:44;18.93;;;3.37;;
545;SDS011;259;53.304;9.816;2023-03-01T08:44:11;18.80;;;4.17;;
545;SDS011;259;53.304;9.816;2023-03-01T08:46:39;21.87;;;4.00;;
545;SDS011;259;53.304;9.816;2023-03-01T08:49:13;17.30;;;3.87;;
545;SDS011;259;53.304;9.816;2023-03-01T08:51:41;16.30;;;3.60;;
545;SDS011;259;53.304;9.816;2023-03-01T08:54:18;24.90;;;4.23;;
545;SDS011;259;53.304;9.816;2023-03-01T08:56:46;23.30;;;3.93;;
545;SDS011;259;53.304;9.816;2023-03-01T08:59:13;30.57;;;5.60;;
545;SDS011;259;53.304;9.816;2023-03-01T09:01:41;25.00;;;4.00;;
545;SDS011;259;53.304;9.816;2023-03-01T09:04:10;17.80;;;5.03;;
545;SDS011;259;53.304;9.816;2023-03-01T09:06:39;35.57;;;4.90;;
545;SDS011;259;53.304;9.816;2023-03-01T09:09:05;25.33;;;3.77;;
545;SDS011;259;53.304;9.816;2023-03-01T09:11:32;23.73;;;4.30;;
545;SDS011;259;53.304;9.816;2023-03-01T09:13:58;20.83;;;3.50;;
545;SDS011;259;53.304;9.816;2023-03-01T09:16:24;15.30;;;3.40;;
545;SDS011;259;53.304;9.816;2023-03-01T09:18:51;13.27;;;3.77;;
545;SDS011;259;53.304;9.816;2023-03-01T09:21:18;16.37;;;3.33;;
545;SDS011;259;53.304;9.816;2023-03-01T09:23:47;17.00;;;3.57;;
545;SDS011;259;53.304;9.816;2023-03-01T09:26:15;8.53;;;3.20;;
545;SDS011;259;53.304;9.816;2023-03-01T09:28:47;13.23;;;3.13;;
545;SDS011;259;53.304;9.816;2023-03-01T09:31:21;15.27;;;3.63;;
545;SDS011;259;53.304;9.816;2023-03-01T09:33:50;18.10;;;3.00;;
545;SDS011;259;53.304;9.816;2023-03-01T09:36:18;7.90;;;2.80;;
545;SDS011;259;53.304;9.816;2023-03-01T09:38:47;13.37;;;2.80;;
545;SDS011;259;53.304;9.816;2023-03-01T09:43:43;13.37;;;2.77;;
545;SDS011;259;53.304;9.816;2023-03-01T09:46:18;9.07;;;2.30;;
545;SDS011;259;53.304;9.816;2023-03-01T09:49:04;5.83;;;1.83;;
545;SDS011;259;53.304;9.816;2023-03-01T09:51:39;11.47;;;2.50;;
545;SDS011;259;53.304;9.816;2023-03-01T09:54:05;10.33;;;2.77;;
545;SDS011;259;53.304;9.816;2023-03-01T09:56:34;13.40;;;2.60;;
545;SDS011;259;53.304;9.816;2023-03-01T10:10:56;8.30;;;2.63;;
545;SDS011;259;53.304;9.816;2023-03-01T10:16:06;7.33;;;2.37;;
545;SDS011;259;53.304;9.816;2023-03-01T10:18:39;9.53;;;3.07;;
545;SDS011;259;53.304;9.816;2023-03-01T10:21:14;10.63;;;3.37;;
545;SDS011;259;53.304;9.816;2023-03-01T10:23:42;16.33;;;3.03;;
545;SDS011;259;53.304;9.816;2023-03-01T10:26:15;6.43;;;2.17;;
545;SDS011;259;53.304;9.816;2023-03-01T10:29:11;8.43;;;2.83;;
545;SDS011;259;53.304;9.816;2023-03-01T10:31:39;13.40;;;2.70;;
545;SDS011;259;53.304;9.816;2023-03-01T10:34:15;4.13;;;2.50;;
545;SDS011;259;53.304;9.816;2023-03-01T10:36:48;8.40;;;2.20;;
545;SDS011;259;53.304;9.816;2023-03-01T10:39:19;9.77;;;3.10;;
545;SDS011;259;53.304;9.816;2023-03-01T10:44:48;7.10;;;2.40;;
545;SDS011;259;53.304;9.816;2023-03-01T10:47:19;7.20;;;2.80;;
545;SDS011;259;53.304;9.816;2023-03-01T10:49:58;7.60;;;3.30;;
545;SDS011;259;53.304;9.816;2023-03-01T10:52:32;13.63;;;3.00;;
545;SDS011;259;53.304;9.816;2023-03-01T10:57:40;8.40;;;2.97;;
545;SDS011;259;53.304;9.816;2023-03-01T11:00:14;6.63;;;3.40;;
545;SDS011;259;53.304;9.816;2023-03-01T11:02:47;6.53;;;3.20;;
545;SDS011;259;53.304;9.816;2023-03-01T11:05:32;5.93;;;2.80;;
545;SDS011;259;53.304;9.816;2023-03-01T11:07:59;7.30;;;3.30;;
545;SDS011;259;53.304;9.816;2023-03-01T11:10:31;6.57;;;3.03;;
545;SDS011;259;53.304;9.816;2023-03-01T11:13:07;7.97;;;3.23;;
545;SDS011;259;53.304;9.816;2023-03-01T11:15:42;12.30;;;3.20;;
545;SDS011;259;53.304;9.816;2023-03-01T11:18:26;4.87;;;2.90;;
545;SDS011;259;53.304;9.816;2023-03-01T11:20:55;11.47;;;7.13;;
545;SDS011;259;53.304;9.816;2023-03-01T11:23:25;9.63;;;4.23;;
545;SDS011;259;53.304;9.816;2023-03-01T11:25:55;5.50;;;3.87;;
545;SDS011;259;53.304;9.816;2023-03-01T11:28:24;5.77;;;3.73;;
545;SDS011;259;53.304;9.816;2023-03-01T11:39:22;8.30;;;3.17;;
545;SDS011;259;53.304;9.816;2023-03-01T11:42:14;4.40;;;2.93;;
545;SDS011;259;53.304;9.816;2023-03-01T11:44:47;3.70;;;2.87;;
545;SDS011;259;53.304;9.816;2023-03-01T11:52:48;8.07;;;3.30;;
545;SDS011;259;53.304;9.816;2023-03-01T11:59:02;4.40;;;1.97;;
545;SDS011;259;53.304;9.816;2023-03-01T12:02:15;6.30;;;2.67;;
545;SDS011;259;53.304;9.816;2023-03-01T12:07:55;4.20;;;1.80;;
545;SDS011;259;53.304;9.816;2023-03-01T12:14:32;8.80;;;2.40;;
545;SDS011;259;53.304;9.816;2023-03-01T12:20:37;7.27;;;2.00;;
545;SDS011;259;53.304;9.816;2023-03-01T12:30:02;5.07;;;2.20;;
545;SDS011;259;53.304;9.816;2023-03-01T12:32:54;3.43;;;2.00;;
545;SDS011;259;53.304;9.816;2023-03-01T12:46:47;13.73;;;6.23;;
545;SDS011;259;53.304;9.816;2023-03-01T12:50:02;12.40;;;5.47;;
545;SDS011;259;53.304;9.816;2023-03-01T12:52:50;9.17;;;4.70;;
545;SDS011;259;53.304;9.816;2023-03-01T12:55:25;9.20;;;4.53;;
545;SDS011;259;53.304;9.816;2023-03-01T12:58:11;6.43;;;4.13;;
545;SDS011;259;53.304;9.816;2023-03-01T13:07:55;15.47;;;4.40;;
545;SDS011;259;53.304;9.816;2023-03-01T13:10:45;12.83;;;4.20;;
545;SDS011;259;53.304;9.816;2023-03-01T13:13:19;6.03;;;3.70;;
545;SDS011;259;53.304;9.816;2023-03-01T13:15:48;4.13;;;3.53;;
545;SDS011;259;53.304;9.816;2023-03-01T13:30:59;12.27;;;4.20;;
545;SDS011;259;53.304;9.816;2023-03-01T13:35:52;13.87;;;3.90;;
545;SDS011;259;53.304;9.816;2023-03-01T13:44:21;5.30;;;2.87;;
545;SDS011;259;53.304;9.816;2023-03-01T13:46:47;14.23;;;4.57;;
545;SDS011;259;53.304;9.816;2023-03-01T13:49:16;17.83;;;5.17;;
545;SDS011;259;53.304;9.816;2023-03-01T13:51:52;17.50;;;6.67;;
545;SDS011;259;53.304;9.816;2023-03-01T13:54:31;20.00;;;6.20;;
545;SDS011;259;53.304;9.816;2023-03-01T13:56:58;9.73;;;6.03;;
545;SDS011;259;53.304;9.816;2023-03-01T13:59:25;10.10;;;5.70;;
545;SDS011;259;53.304;9.816;2023-03-01T14:01:53;12.57;;;6.30;;
545;SDS011;259;53.304;9.816;2023-03-01T14:06:47;15.47;;;7.00;;
545;SDS011;259;53.304;9.816;2023-03-01T14:09:17;8.93;;;7.30;;
545;SDS011;259;53.304;9.816;2023-03-01T14:11:54;9.50;;;6.57;;
545;SDS011;259;53.304;9.816;2023-03-01T14:14:31;9.50;;;6.63;;
545;SDS011;259;53.304;9.816;2023-03-01T14:17:24;7.20;;;6.50;;
545;SDS011;259;53.304;9.816;2023-03-01T14:20:41;6.70;;;6.10;;
545;SDS011;259;53.304;9.816;2023-03-01T14:23:17;6.40;;;5.87;;
545;SDS011;259;53.304;9.816;2023-03-01T14:25:47;10.00;;;6.63;;
545;SDS011;259;53.304;9.816;2023-03-01T14:28:17;6.07;;;5.67;;
545;SDS011;259;53.304;9.816;2023-03-01T14:30:51;7.70;;;6.37;;
545;SDS011;259;53.304;9.816;2023-03-01T14:33:31;6.27;;;5.50;;
545;SDS011;259;53.304;9.816;2023-03-01T14:36:05;6.10;;;5.17;;
545;SDS011;259;53.304;9.816;2023-03-01T14:38:42;5.77;;;5.27;;
545;SDS011;259;53.304;9.816;2023-03-01T14:41:22;6.17;;;5.67;;
545;SDS011;259;53.304;9.816;2023-03-01T14:43:53;5.83;;;5.43;;
545;SDS011;259;53.304;9.816;2023-03-01T14:46:40;8.40;;;5.90;;
545;SDS011;259;53.304;9.816;2023-03-01T14:49:15;6.07;;;5.47;;
545;SDS011;259;53.304;9.816;2023-03-01T14:51:53;5.50;;;5.10;;
545;SDS011;259;53.304;9.816;2023-03-01T14:54:27;5.70;;;5.20;;
545;SDS011;259;53.304;9.816;2023-03-01T14:57:12;6.77;;;5.10;;
545;SDS011;259;53.304;9.816;2023-03-01T14:59:51;5.90;;;5.40;;
545;SDS011;259;53.304;9.816;2023-03-01T15:02:26;5.83;;;5.23;;
545;SDS011;259;53.304;9.816;2023-03-01T15:05:13;5.47;;;4.97;;
545;SDS011;259;53.304;9.816;2023-03-01T15:07:41;5.40;;;5.00;;
545;SDS011;259;53.304;9.816;2023-03-01T15:10:16;5.33;;;4.90;;
545;SDS011;259;53.304;9.816;2023-03-01T15:12:50;5.97;;;5.47;;
545;SDS011;259;53.304;9.816;2023-03-01T15:15:37;5.93;;;5.53;;
545;SDS011;259;53.304;9.816;2023-03-01T15:18:17;5.60;;;5.30;;
545;SDS011;259;53.304;9.816;2023-03-01T15:20:51;5.67;;;5.27;;
545;SDS011;259;53.304;9.816;2023-03-01T15:23:19;6.50;;;5.80;;
545;SDS011;259;53.304;9.816;2023-03-01T15:25:49;5.50;;;5.00;;
545;SDS011;259;53.304;9.816;2023-03-01T15:28:21;5.90;;;5.50;;
545;SDS011;259;53.304;9.816;2023-03-01T15:31:29;5.90;;;5.50;;
545;SDS011;259;53.304;9.816;2023-03-01T15:33:51;5.57;;;5.07;;
545;SDS011;259;53.304;9.816;2023-03-01T15:36:37;6.60;;;5.90;;
545;SDS011;259;53.304;9.816;2023-03-01T15:39:33;5.47;;;4.97;;
545;SDS011;259;53.304;9.816;2023-03-01T15:42:02;5.80;;;5.33;;
545;SDS011;259;53.304;9.816;2023-03-01T15:47:52;5.80;;;5.30;;
545;SDS011;259;53.304;9.816;2023-03-01T15:50:41;6.43;;;6.00;;
545;SDS011;259;53.304;9.816;2023-03-01T15:53:12;5.47;;;5.07;;
545;SDS011;259;53.304;9.816;2023-03-01T15:55:40;8.30;;;7.60;;
545;SDS011;259;53.304;9.816;2023-03-01T15:58:10;10.07;;;9.27;;
545;SDS011;259;53.304;9.816;2023-03-01T16:00:48;13.37;;;12.03;;
545;SDS011;259;53.304;9.816;2023-03-01T16:03:20;22.93;;;13.47;;
545;SDS011;259;53.304;9.816;2023-03-01T16:05:51;22.57;;;12.30;;
545;SDS011;259;53.304;9.816;2023-03-01T16:08:17;29.97;;;12.73;;
545;SDS011;259;53.304;9.816;2023-03-01T16:10:43;15.83;;;11.17;;
545;SDS011;259;53.304;9.816;2023-03-01T16:13:11;14.23;;;10.97;;
545;SDS011;259;53.304;9.816;2023-03-01T16:15:37;13.90;;;9.82;;
545;SDS011;259;53.304;9.816;2023-03-01T16:18:04;14.40;;;11.00;;
545;SDS011;259;53.304;9.816;2023-03-01T16:20:31;13.27;;;10.47;;
545;SDS011;259;53.304;9.816;2023-03-01T16:22:57;14.43;;;10.27;;
545;SDS011;259;53.304;9.816;2023-03-01T16:25:26;11.00;;;9.40;;
545;SDS011;259;53.304;9.816;2023-03-01T16:27:52;14.67;;;10.03;;
545;SDS011;259;53.304;9.816;2023-03-01T16:30:19;12.27;;;9.53;;
545;SDS011;259;53.304;9.816;2023-03-01T16:32:47;10.80;;;9.47;;
545;SDS011;259;53.304;9.816;2023-03-01T16:35:14;13.00;;;8.97;;
545;SDS011;259;53.304;9.816;2023-03-01T16:37:45;11.07;;;9.07;;
545;SDS011;259;53.304;9.816;2023-03-01T16:40:19;9.53;;;8.60;;
545;SDS011;259;53.304;9.816;2023-03-01T16:42:51;13.30;;;8.17;;
545;SDS011;259;53.304;9.816;2023-03-01T16:45:18;15.50;;;9.03;;
545;SDS011;259;53.304;9.816;2023-03-01T16:47:44;20.10;;;9.17;;
545;SDS011;259;53.304;9.816;2023-03-01T16:50:10;12.70;;;7.43;;
545;SDS011;259;53.304;9.816;2023-03-01T16:52:36;14.30;;;7.87;;
545;SDS011;259;53.304;9.816;2023-03-01T16:55:03;9.43;;;6.90;;
545;SDS011;259;53.304;9.816;2023-03-01T16:57:35;9.07;;;6.70;;
545;SDS011;259;53.304;9.816;2023-03-01T17:00:05;15.83;;;6.33;;
545;SDS011;259;53.304;9.816;2023-03-01T17:02:35;12.90;;;6.17;;
545;SDS011;259;53.304;9.816;2023-03-01T17:05:02;10.50;;;5.13;;
545;SDS011;259;53.304;9.816;2023-03-01T17:07:29;9.53;;;5.77;;
545;SDS011;259;53.304;9.816;2023-03-01T17:10:02;10.20;;;6.00;;
545;SDS011;259;53.304;9.816;2023-03-01T17:12:30;5.23;;;4.80;;
545;SDS011;259;53.304;9.816;2023-03-01T17:14:57;6.83;;;5.40;;
545;SDS011;259;53.304;9.816;2023-03-01T17:17:23;5.43;;;4.93;;
545;SDS011;259;53.304;9.816;2023-03-01T17:19:48;5.50;;;4.80;;
545;SDS011;259;53.304;9.816;2023-03-01T17:22:15;7.50;;;4.83;;
545;SDS011;259;53.304;9.816;2023-03-01T17:24:41;5.63;;;5.13;;
545;SDS011;259;53.304;9.816;2023-03-01T17:27:08;5.53;;;4.60;;
545;SDS011;259;53.304;9.816;2023-03-01T17:29:36;5.07;;;4.63;;
545;SDS011;259;53.304;9.816;2023-03-01T17:32:02;5.60;;;4.20;;
545;SDS011;259;53.304;9.816;2023-03-01T17:34:30;5.27;;;4.77;;
545;SDS011;259;53.304;9.816;2023-03-01T17:36:56;4.80;;;4.30;;
545;SDS011;259;53.304;9.816;2023-03-01T17:39:23;6.63;;;4.47;;
545;SDS011;259;53.304;9.816;2023-03-01T17:41:54;4.90;;;4.40;;
545;SDS011;259;53.304;9.816;2023-03-01T17:44:21;9.53;;;4.33;;
545;SDS011;259;53.304;9.816;2023-03-01T17:46:48;4.70;;;3.93;;
545;SDS011;259;53.304;9.816;2023-03-01T17:49:14;4.57;;;4.17;;
545;SDS011;259;53.304;9.816;2023-03-01T17:51:41;4.97;;;4.60;;
545;SDS011;259;53.304;9.816;2023-03-01T17:54:06;3.80;;;3.40;;
545;SDS011;259;53.304;9.816;2023-03-01T17:56:32;5.30;;;4.80;;
545;SDS011;259;53.304;9.816;2023-03-01T17:58:58;4.60;;;4.20;;
545;SDS011;259;53.304;9.816;2023-03-01T18:01:24;4.63;;;4.33;;